Time;durP1;ratioP1;P1;durP2;ratioP2;P2;SDS_P1;SDS_P2;PMS_P1;PMS_P2;Temp;Humidity;BMP_temperature;BMP_pressure;BME280_temperature;BME280_humidity;BME280_pressure;Samples;Min_cycle;Max_cycle;Signal;HPM_P1;HPM_P2
2023/03/16 00:00:45;;;;;;;;;;;9.60;83.80;;;;;;5052678;28;19928;-70
2023/03/16 00:03:11;;;;;;;;;;;9.60;83.90;;;;;;5054261;28;20026;-70
2023/03/16 00:05:37;;;;;;;;;;;9.60;84.00;;;;;;5053390;28;20190;-70
2023/03/16 00:08:03;;;;;;;;;;;9.50;84.00;;;;;;5054767;28;19920;-70
2023/03/16 00:10:29;;;;;;;;;;;9.50;83.70;;;;;;5054349;28;19913;-71
2023/03/16 00:12:55;;;;;;;;;;;9.50;84.20;;;;;;5053350;28;19917;-70
2023/03/16 00:15:21;;;;;;;;;;;9.60;84.30;;;;;;5053566;28;19945;-70
2023/03/16 00:17:47;;;;;;;;;;;9.50;84.50;;;;;;5054343;28;20338;-70
2023/03/16 00:20:14;;;;;;;;;;;9.50;83.80;;;;;;5054330;28;20370;-70
2023/03/16 00:22:40;;;;;;;;;;;9.50;83.90;;;;;;5053705;28;19920;-70
2023/03/16 00:25:07;;;;;;;;;;;9.50;83.70;;;;;;5054586;28;20367;-70
2023/03/16 00:27:32;;;;;;;;;;;9.60;84.10;;;;;;5054336;28;20248;-70
2023/03/16 00:29:58;;;;;;;;;;;9.50;84.20;;;;;;5054080;28;19920;-70
2023/03/16 00:32:25;;;;;;;;;;;9.60;83.50;;;;;;5054307;28;19930;-70
2023/03/16 00:34:51;;;;;;;;;;;9.50;83.90;;;;;;5053991;28;19916;-70
2023/03/16 00:37:17;;;;;;;;;;;9.60;83.20;;;;;;5054433;28;19913;-70
2023/03/16 00:39:44;;;;;;;;;;;9.60;83.30;;;;;;5053578;28;19908;-70
2023/03/16 00:42:12;;;;;;;;;;;9.60;82.80;;;;;;5053931;28;19909;-70
2023/03/16 00:44:38;;;;;;;;;;;9.60;83.10;;;;;;5053985;28;19931;-70
2023/03/16 00:47:05;;;;;;;;;;;9.60;82.30;;;;;;5053949;28;19951;-70
2023/03/16 00:49:34;;;;;;;;;;;9.60;81.80;;;;;;5053170;28;19909;-70
2023/03/16 00:52:03;;;;;;;;;;;9.60;82.20;;;;;;5053866;28;20385;-70
2023/03/16 00:54:31;;;;;;;;;;;9.60;82.10;;;;;;5052252;28;19913;-70
2023/03/16 00:56:57;;;;;;;;;;;9.60;83.10;;;;;;5052330;28;19909;-71
2023/03/16 00:59:25;;;;;;;;;;;9.60;83.20;;;;;;5053419;28;19908;-70
2023/03/16 01:01:51;;;;;;;;;;;9.60;83.00;;;;;;5053554;28;19908;-70
2023/03/16 01:04:17;;;;;;;;;;;9.60;83.00;;;;;;5052964;28;19909;-70
2023/03/16 01:06:44;;;;;;;;;;;9.50;82.50;;;;;;5053441;28;20003;-71
2023/03/16 01:09:10;;;;;;;;;;;9.60;83.00;;;;;;5052815;28;19913;-70
2023/03/16 01:11:35;;;;;;;;;;;9.60;82.90;;;;;;5052965;28;19920;-71
2023/03/16 01:14:02;;;;;;;;;;;9.70;82.80;;;;;;5053108;28;19927;-70
2023/03/16 01:16:28;;;;;;;;;;;9.60;82.80;;;;;;5053583;28;20305;-70
2023/03/16 01:18:55;;;;;;;;;;;9.70;83.30;;;;;;5053311;28;19919;-70
2023/03/16 01:21:21;;;;;;;;;;;9.70;83.00;;;;;;5052954;28;19955;-70
2023/03/16 01:23:47;;;;;;;;;;;9.70;82.20;;;;;;5053284;28;19917;-70
2023/03/16 01:26:16;;;;;;;;;;;9.60;82.00;;;;;;5053528;28;19909;-70
2023/03/16 01:28:43;;;;;;;;;;;9.60;82.50;;;;;;5053033;28;19908;-70
2023/03/16 01:31:10;;;;;;;;;;;9.60;82.50;;;;;;5052693;28;19927;-70
2023/03/16 01:33:36;;;;;;;;;;;9.60;81.90;;;;;;5051357;28;19992;-72
2023/03/16 01:36:05;;;;;;;;;;;9.70;82.10;;;;;;5052451;28;19944;-70
2023/03/16 01:38:30;;;;;;;;;;;9.70;81.90;;;;;;5052874;28;20416;-70
2023/03/16 01:40:56;;;;;;;;;;;9.70;81.50;;;;;;5053289;28;19909;-70
2023/03/16 01:43:24;;;;;;;;;;;9.70;81.50;;;;;;5052775;28;19913;-70
2023/03/16 01:46:05;;;;;;;;;;;9.70;81.00;;;;;;5052870;28;19916;-70
2023/03/16 01:48:37;;;;;;;;;;;9.80;81.30;;;;;;5052523;28;19909;-70
2023/03/16 01:51:08;;;;;;;;;;;9.70;81.50;;;;;;5055728;28;19923;-71
2023/03/16 01:53:34;;;;;;;;;;;9.80;82.30;;;;;;5057476;28;19908;-71
2023/03/16 01:56:02;;;;;;;;;;;9.80;82.10;;;;;;5057484;28;19909;-71
2023/03/16 01:58:28;;;;;;;;;;;9.80;82.60;;;;;;5053890;28;20343;-70
2023/03/16 02:00:56;;;;;;;;;;;9.70;83.50;;;;;;5051321;28;19915;-70
2023/03/16 02:03:22;;;;;;;;;;;9.60;83.30;;;;;;5052377;28;19912;-70
2023/03/16 02:06:03;;;;;;;;;;;9.60;84.30;;;;;;5053246;28;20015;-70
2023/03/16 02:08:30;;;;;;;;;;;9.60;84.10;;;;;;5053416;28;19908;-71
2023/03/16 02:10:57;;;;;;;;;;;9.60;84.30;;;;;;5052115;28;19920;-70
2023/03/16 02:13:23;;;;;;;;;;;9.50;84.70;;;;;;5053031;28;19960;-70
2023/03/16 02:15:50;;;;;;;;;;;9.50;84.20;;;;;;5052494;28;20046;-70
2023/03/16 02:18:16;;;;;;;;;;;9.50;84.70;;;;;;5052871;28;19916;-70
2023/03/16 02:20:45;;;;;;;;;;;9.50;85.20;;;;;;5052660;28;19908;-70
2023/03/16 02:23:17;;;;;;;;;;;9.50;85.00;;;;;;5052283;28;20558;-70
2023/03/16 02:25:42;;;;;;;;;;;9.50;84.90;;;;;;5052730;28;20003;-71
2023/03/16 02:28:27;;;;;;;;;;;9.60;84.40;;;;;;5052666;28;19948;-70
2023/03/16 02:30:52;;;;;;;;;;;9.60;83.90;;;;;;5052218;28;20389;-70
2023/03/16 02:33:20;;;;;;;;;;;9.60;84.50;;;;;;5052504;28;19913;-70
2023/03/16 02:35:45;;;;;;;;;;;9.60;84.30;;;;;;5052804;28;19913;-70
2023/03/16 02:38:11;;;;;;;;;;;9.60;84.00;;;;;;5051215;28;19915;-70
2023/03/16 02:40:37;;;;;;;;;;;9.70;83.90;;;;;;5052256;28;19913;-70
2023/03/16 02:43:19;;;;;;;;;;;9.70;84.00;;;;;;5052446;28;19909;-70
2023/03/16 02:45:49;;;;;;;;;;;9.70;83.70;;;;;;5053038;28;19943;-70
2023/03/16 02:48:22;;;;;;;;;;;9.70;83.80;;;;;;5056454;28;19924;-70
2023/03/16 02:50:50;;;;;;;;;;;9.70;83.80;;;;;;5056141;28;19913;-70
2023/03/16 02:53:16;;;;;;;;;;;9.60;84.20;;;;;;5056565;28;20348;-70
2023/03/16 02:55:41;;;;;;;;;;;9.70;84.60;;;;;;5056681;28;19909;-70
2023/03/16 02:58:07;;;;;;;;;;;9.70;84.10;;;;;;5055103;28;19909;-71
2023/03/16 03:00:33;;;;;;;;;;;9.60;84.30;;;;;;5055856;28;20321;-70
2023/03/16 03:02:58;;;;;;;;;;;9.70;84.40;;;;;;5056268;28;19965;-70
2023/03/16 03:05:24;;;;;;;;;;;9.60;84.30;;;;;;5056302;28;19909;-70
2023/03/16 03:07:50;;;;;;;;;;;9.60;84.80;;;;;;5056017;28;19996;-70
2023/03/16 03:10:15;;;;;;;;;;;9.70;84.60;;;;;;5054358;28;19921;-70
2023/03/16 03:12:41;;;;;;;;;;;9.70;84.50;;;;;;5054845;28;19913;-70
2023/03/16 03:15:07;;;;;;;;;;;9.70;84.80;;;;;;5055730;28;19944;-70
2023/03/16 03:17:33;;;;;;;;;;;9.70;84.20;;;;;;5055836;28;19909;-70
2023/03/16 03:20:01;;;;;;;;;;;9.80;83.10;;;;;;5055394;28;19948;-70
2023/03/16 03:22:26;;;;;;;;;;;9.80;83.50;;;;;;5054611;28;19988;-70
2023/03/16 03:24:52;;;;;;;;;;;9.80;83.80;;;;;;5055745;28;19913;-71
2023/03/16 03:27:19;;;;;;;;;;;9.70;83.80;;;;;;5054609;28;19974;-71
2023/03/16 03:29:44;;;;;;;;;;;9.70;84.70;;;;;;5054679;28;19913;-71
2023/03/16 03:32:10;;;;;;;;;;;9.60;84.60;;;;;;5055522;28;19909;-70
2023/03/16 03:34:36;;;;;;;;;;;9.60;83.50;;;;;;5055128;28;19909;-70
2023/03/16 03:37:01;;;;;;;;;;;9.50;86.70;;;;;;5055147;28;19955;-70
2023/03/16 03:39:27;;;;;;;;;;;9.40;89.20;;;;;;5054761;28;19909;-70
2023/03/16 03:41:53;;;;;;;;;;;9.30;90.70;;;;;;5054715;28;20346;-70
2023/03/16 03:44:20;;;;;;;;;;;9.30;91.50;;;;;;5054913;28;20309;-70
2023/03/16 03:46:46;;;;;;;;;;;9.20;91.60;;;;;;5053363;28;19912;-70
2023/03/16 03:49:12;;;;;;;;;;;9.20;91.50;;;;;;5054869;28;19909;-70
2023/03/16 03:51:37;;;;;;;;;;;9.20;91.70;;;;;;5055164;28;19924;-70
2023/03/16 03:54:03;;;;;;;;;;;9.10;92.00;;;;;;5054851;28;20369;-70
2023/03/16 03:56:29;;;;;;;;;;;9.00;92.30;;;;;;5054626;28;19916;-70
2023/03/16 03:58:54;;;;;;;;;;;8.90;92.60;;;;;;5053683;28;19944;-70
2023/03/16 04:01:20;;;;;;;;;;;8.80;92.30;;;;;;5054852;28;19908;-70
2023/03/16 04:03:46;;;;;;;;;;;8.70;92.50;;;;;;5054365;28;19909;-70
2023/03/16 04:06:11;;;;;;;;;;;8.50;93.00;;;;;;5054763;28;19909;-70
2023/03/16 04:08:37;;;;;;;;;;;8.50;93.50;;;;;;5054457;28;19908;-70
2023/03/16 04:11:03;;;;;;;;;;;8.40;93.50;;;;;;5054496;28;19976;-70
2023/03/16 04:13:28;;;;;;;;;;;8.30;93.30;;;;;;5054519;28;19909;-70
2023/03/16 04:15:55;;;;;;;;;;;8.30;93.20;;;;;;5055066;28;19931;-69
2023/03/16 04:18:21;;;;;;;;;;;8.40;93.00;;;;;;5054513;28;19987;-70
2023/03/16 04:20:47;;;;;;;;;;;8.30;92.60;;;;;;5054551;28;19958;-70
2023/03/16 04:23:12;;;;;;;;;;;8.30;93.40;;;;;;5052549;28;19921;-70
2023/03/16 04:25:38;;;;;;;;;;;8.30;93.50;;;;;;5054519;28;19920;-70
2023/03/16 04:28:04;;;;;;;;;;;8.40;92.90;;;;;;5053979;28;19915;-70
2023/03/16 04:30:30;;;;;;;;;;;8.60;92.10;;;;;;5054126;28;19963;-70
2023/03/16 04:32:55;;;;;;;;;;;8.60;91.90;;;;;;5054126;28;19909;-70
2023/03/16 04:35:21;;;;;;;;;;;8.40;92.30;;;;;;5053991;28;19915;-70
2023/03/16 04:37:47;;;;;;;;;;;8.30;92.70;;;;;;5053792;28;19935;-70
2023/03/16 04:40:15;;;;;;;;;;;8.10;92.80;;;;;;5054371;28;19935;-72
2023/03/16 04:42:41;;;;;;;;;;;8.10;93.20;;;;;;5053613;28;19909;-70
2023/03/16 04:45:07;;;;;;;;;;;8.00;93.50;;;;;;5053494;28;19909;-69
2023/03/16 04:47:33;;;;;;;;;;;8.20;92.80;;;;;;5053901;28;19908;-70
2023/03/16 04:49:59;;;;;;;;;;;8.20;92.90;;;;;;5054000;28;20090;-70
2023/03/16 04:52:25;;;;;;;;;;;8.30;92.40;;;;;;5053903;28;19935;-70
2023/03/16 04:54:51;;;;;;;;;;;8.40;92.00;;;;;;5053603;28;19954;-71
2023/03/16 04:57:18;;;;;;;;;;;8.40;91.80;;;;;;5053645;28;19913;-71
2023/03/16 04:59:44;;;;;;;;;;;8.50;91.50;;;;;;5053711;28;19995;-69
2023/03/16 05:02:10;;;;;;;;;;;8.60;91.50;;;;;;5052091;28;20061;-70
2023/03/16 05:04:35;;;;;;;;;;;8.70;91.30;;;;;;5053740;28;19913;-69
2023/03/16 05:07:01;;;;;;;;;;;8.60;91.20;;;;;;5052995;28;20420;-69
2023/03/16 05:09:27;;;;;;;;;;;8.70;91.30;;;;;;5053494;28;19909;-70
2023/03/16 05:11:52;;;;;;;;;;;8.70;91.70;;;;;;5053287;28;19913;-72
2023/03/16 05:14:18;;;;;;;;;;;8.60;91.40;;;;;;5054006;28;20007;-70
2023/03/16 05:16:44;;;;;;;;;;;8.70;91.60;;;;;;5053435;28;19909;-69
2023/03/16 05:19:09;;;;;;;;;;;8.60;91.80;;;;;;5055950;28;19909;-68
2023/03/16 05:21:37;;;;;;;;;;;8.60;91.70;;;;;;5057717;28;19909;-70
2023/03/16 05:24:06;;;;;;;;;;;8.60;91.90;;;;;;5057528;28;19943;-70
2023/03/16 05:26:32;;;;;;;;;;;8.60;92.10;;;;;;5056790;28;19917;-70
2023/03/16 05:28:58;;;;;;;;;;;8.50;92.30;;;;;;5053932;28;19909;-71
2023/03/16 05:31:25;;;;;;;;;;;8.40;92.70;;;;;;5051180;28;20286;-70
2023/03/16 05:33:52;;;;;;;;;;;8.30;93.00;;;;;;5053646;28;19912;-70
2023/03/16 05:36:17;;;;;;;;;;;8.30;92.80;;;;;;5053277;28;19951;-70
2023/03/16 05:38:44;;;;;;;;;;;8.30;93.00;;;;;;5052568;28;20318;-70
2023/03/16 05:41:10;;;;;;;;;;;8.30;92.90;;;;;;5051394;28;19917;-70
2023/03/16 05:43:35;;;;;;;;;;;8.30;92.90;;;;;;5053295;28;19926;-69
2023/03/16 05:46:01;;;;;;;;;;;8.20;93.40;;;;;;5053101;28;20282;-69
2023/03/16 05:48:27;;;;;;;;;;;8.30;93.40;;;;;;5053065;28;19966;-70
2023/03/16 05:50:54;;;;;;;;;;;8.40;93.40;;;;;;5051886;28;20035;-70
2023/03/16 05:53:20;;;;;;;;;;;8.50;93.30;;;;;;5052700;28;19949;-70
2023/03/16 05:55:50;;;;;;;;;;;8.40;93.60;;;;;;5053023;28;20247;-70
2023/03/16 05:58:16;;;;;;;;;;;8.20;93.80;;;;;;5052723;28;19951;-70
2023/03/16 06:00:41;;;;;;;;;;;8.20;93.90;;;;;;5052673;28;20306;-69
2023/03/16 06:03:07;;;;;;;;;;;8.20;94.60;;;;;;5052901;28;19909;-69
2023/03/16 06:05:33;;;;;;;;;;;8.10;95.10;;;;;;5052823;28;19913;-71
2023/03/16 06:07:58;;;;;;;;;;;8.10;95.90;;;;;;5052922;28;20349;-70
2023/03/16 06:10:25;;;;;;;;;;;8.00;96.30;;;;;;5052127;28;19916;-70
2023/03/16 06:12:50;;;;;;;;;;;8.00;96.00;;;;;;5052869;28;19913;-70
2023/03/16 06:15:16;;;;;;;;;;;8.00;96.40;;;;;;5052645;28;19913;-70
2023/03/16 06:17:42;;;;;;;;;;;8.00;96.40;;;;;;5052344;28;20290;-69
2023/03/16 06:20:10;;;;;;;;;;;8.10;96.30;;;;;;5052016;28;19908;-72
2023/03/16 06:22:36;;;;;;;;;;;8.20;96.00;;;;;;5056250;28;19917;-70
2023/03/16 06:25:03;;;;;;;;;;;8.20;95.80;;;;;;5056898;28;19909;-70
2023/03/16 06:27:29;;;;;;;;;;;8.30;96.00;;;;;;5056492;28;19913;-70
2023/03/16 06:29:54;;;;;;;;;;;8.50;95.60;;;;;;5054588;28;19913;-70
2023/03/16 06:32:20;;;;;;;;;;;8.40;95.70;;;;;;5056008;28;20439;-70
2023/03/16 06:34:47;;;;;;;;;;;8.40;96.10;;;;;;5056134;28;20338;-70
2023/03/16 06:37:12;;;;;;;;;;;8.50;95.50;;;;;;5056396;28;19955;-70
2023/03/16 06:39:38;;;;;;;;;;;8.50;95.70;;;;;;5055780;28;19912;-70
2023/03/16 06:42:04;;;;;;;;;;;8.50;96.00;;;;;;5056442;28;19913;-70
2023/03/16 06:44:30;;;;;;;;;;;8.60;95.70;;;;;;5056525;28;19988;-70
2023/03/16 06:46:56;;;;;;;;;;;8.80;95.10;;;;;;5056305;28;19948;-70
2023/03/16 06:49:22;;;;;;;;;;;8.80;95.00;;;;;;5055965;28;19913;-70
2023/03/16 06:51:47;;;;;;;;;;;8.80;95.40;;;;;;5056110;28;19959;-70
2023/03/16 06:54:13;;;;;;;;;;;8.90;95.80;;;;;;5054785;28;19908;-69
2023/03/16 06:56:39;;;;;;;;;;;8.90;96.10;;;;;;5056089;28;20362;-70
2023/03/16 06:59:04;;;;;;;;;;;9.10;96.10;;;;;;5055458;28;19908;-70
2023/03/16 07:01:30;;;;;;;;;;;9.20;95.10;;;;;;5055358;28;20007;-70
2023/03/16 07:03:56;;;;;;;;;;;9.30;95.10;;;;;;5056289;28;19909;-70
2023/03/16 07:06:21;;;;;;;;;;;9.40;95.20;;;;;;5056133;28;20377;-70
2023/03/16 07:08:47;;;;;;;;;;;9.50;94.90;;;;;;5056039;28;19920;-70
2023/03/16 07:11:13;;;;;;;;;;;9.50;94.90;;;;;;5055411;28;19927;-70
2023/03/16 07:13:39;;;;;;;;;;;9.60;95.40;;;;;;5055638;28;19963;-74
2023/03/16 07:16:05;;;;;;;;;;;9.60;96.40;;;;;;5054346;28;19913;-70
2023/03/16 07:18:31;;;;;;;;;;;9.70;95.70;;;;;;5054316;28;19909;-70
2023/03/16 07:20:57;;;;;;;;;;;9.80;95.10;;;;;;5055077;28;19909;-70
2023/03/16 07:23:23;;;;;;;;;;;9.80;95.10;;;;;;5055057;28;19921;-70
2023/03/16 07:25:50;;;;;;;;;;;9.80;95.30;;;;;;5053866;28;20370;-70
2023/03/16 07:28:17;;;;;;;;;;;9.90;95.40;;;;;;5055389;28;19916;-71
2023/03/16 07:30:43;;;;;;;;;;;9.90;95.10;;;;;;5055128;28;19917;-70
2023/03/16 07:33:09;;;;;;;;;;;9.90;95.30;;;;;;5054375;28;20290;-70
2023/03/16 07:35:35;;;;;;;;;;;9.90;95.70;;;;;;5055361;28;19909;-70
2023/03/16 07:38:00;;;;;;;;;;;9.90;95.20;;;;;;5055459;28;19909;-71
2023/03/16 07:40:26;;;;;;;;;;;10.00;95.50;;;;;;5055093;28;19908;-70
2023/03/16 07:42:52;;;;;;;;;;;10.00;95.40;;;;;;5055125;28;19913;-72
2023/03/16 07:45:17;;;;;;;;;;;10.10;95.30;;;;;;5054782;28;19909;-70
2023/03/16 07:47:43;;;;;;;;;;;10.10;95.40;;;;;;5053478;28;20007;-70
2023/03/16 07:50:10;;;;;;;;;;;10.20;95.40;;;;;;5054558;28;19916;-70
2023/03/16 07:52:36;;;;;;;;;;;10.20;95.10;;;;;;5054971;28;19916;-70
2023/03/16 07:55:02;;;;;;;;;;;10.30;95.20;;;;;;5054113;28;20377;-70
2023/03/16 07:57:28;;;;;;;;;;;10.30;95.20;;;;;;5054656;28;19916;-70
2023/03/16 07:59:54;;;;;;;;;;;10.40;95.20;;;;;;5054543;28;19908;-70
2023/03/16 08:02:20;;;;;;;;;;;10.40;95.40;;;;;;5054864;28;19939;-70
2023/03/16 08:04:46;;;;;;;;;;;10.40;95.30;;;;;;5054939;28;19913;-70
2023/03/16 08:07:13;;;;;;;;;;;10.50;95.40;;;;;;5053014;28;19925;-72
2023/03/16 08:09:39;;;;;;;;;;;10.50;95.00;;;;;;5054173;28;19952;-70
2023/03/16 08:12:05;;;;;;;;;;;10.50;95.10;;;;;;5054962;28;19936;-70
2023/03/16 08:14:33;;;;;;;;;;;10.50;95.40;;;;;;5054608;28;19917;-70
2023/03/16 08:17:02;;;;;;;;;;;10.60;95.30;;;;;;5054668;28;19942;-70
2023/03/16 08:19:27;;;;;;;;;;;10.60;95.30;;;;;;5054018;28;19944;-70
2023/03/16 08:21:53;;;;;;;;;;;10.70;95.30;;;;;;5052293;28;19916;-70
2023/03/16 08:24:20;;;;;;;;;;;10.70;95.30;;;;;;5053687;28;20030;-70
2023/03/16 08:26:46;;;;;;;;;;;10.80;95.40;;;;;;5054044;28;19912;-70
2023/03/16 08:29:12;;;;;;;;;;;10.80;95.80;;;;;;5052584;28;19909;-70
2023/03/16 08:31:37;;;;;;;;;;;10.90;95.30;;;;;;5054042;28;20052;-70
2023/03/16 08:34:03;;;;;;;;;;;10.90;95.10;;;;;;5053784;28;19996;-70
2023/03/16 08:36:29;;;;;;;;;;;10.90;94.90;;;;;;5053623;28;19920;-70
2023/03/16 08:38:55;;;;;;;;;;;10.90;94.60;;;;;;5053351;28;20004;-70
2023/03/16 08:41:21;;;;;;;;;;;10.90;95.00;;;;;;5053030;28;19957;-70
2023/03/16 08:43:46;;;;;;;;;;;11.00;94.80;;;;;;5053165;28;19916;-70
2023/03/16 08:46:12;;;;;;;;;;;11.00;94.90;;;;;;5054272;28;19909;-70
2023/03/16 08:48:39;;;;;;;;;;;11.10;94.50;;;;;;5055587;28;20358;-70
2023/03/16 08:51:05;;;;;;;;;;;11.10;94.70;;;;;;5056160;28;19924;-70
2023/03/16 08:53:31;;;;;;;;;;;11.20;94.80;;;;;;5056180;28;19909;-74
2023/03/16 08:56:03;;;;;;;;;;;11.20;94.80;;;;;;5056337;28;19994;-70
2023/03/16 08:58:31;;;;;;;;;;;11.30;93.80;;;;;;5054136;28;20448;-71
2023/03/16 09:00:58;;;;;;;;;;;11.30;94.20;;;;;;5054910;28;20393;-71
2023/03/16 09:03:25;;;;;;;;;;;11.40;94.30;;;;;;5053670;28;19952;-70
2023/03/16 09:05:56;;;;;;;;;;;11.50;94.30;;;;;;5055210;28;19924;-70
2023/03/16 09:08:23;;;;;;;;;;;11.50;93.50;;;;;;5055059;28;19908;-70
2023/03/16 09:10:50;;;;;;;;;;;11.50;93.70;;;;;;5053160;28;20016;-70
2023/03/16 09:13:15;;;;;;;;;;;11.50;94.20;;;;;;5051977;28;19920;-71
2023/03/16 09:15:41;;;;;;;;;;;11.50;94.50;;;;;;5053805;28;20263;-70
2023/03/16 09:18:07;;;;;;;;;;;11.60;93.70;;;;;;5053489;28;20382;-70
2023/03/16 09:20:33;;;;;;;;;;;11.60;92.80;;;;;;5053327;28;19931;-70
2023/03/16 09:22:58;;;;;;;;;;;11.60;93.00;;;;;;5053192;28;19927;-70
2023/03/16 09:25:25;;;;;;;;;;;11.60;93.50;;;;;;5053430;28;20351;-70
2023/03/16 09:27:51;;;;;;;;;;;11.60;93.50;;;;;;5053161;28;19940;-70
2023/03/16 09:30:17;;;;;;;;;;;11.70;93.30;;;;;;5052921;28;20056;-70
2023/03/16 09:32:43;;;;;;;;;;;11.70;93.30;;;;;;5051702;28;20000;-70
2023/03/16 09:35:09;;;;;;;;;;;11.70;93.20;;;;;;5053301;28;19956;-70
2023/03/16 09:37:35;;;;;;;;;;;11.80;92.90;;;;;;5052944;28;20379;-71
2023/03/16 09:40:00;;;;;;;;;;;11.80;93.10;;;;;;5052730;28;19908;-70
2023/03/16 09:42:35;;;;;;;;;;;11.80;92.80;;;;;;5053228;28;20393;-70
2023/03/16 09:45:05;;;;;;;;;;;11.90;93.20;;;;;;5052973;28;19916;-70
2023/03/16 09:47:33;;;;;;;;;;;11.90;92.90;;;;;;5052983;28;19909;-72
2023/03/16 09:50:01;;;;;;;;;;;12.00;92.80;;;;;;5052120;28;19916;-71
2023/03/16 09:52:38;;;;;;;;;;;11.90;93.10;;;;;;5052604;28;19909;-70
2023/03/16 09:55:10;;;;;;;;;;;12.00;93.00;;;;;;5052490;28;19931;-70
2023/03/16 09:57:41;;;;;;;;;;;12.10;92.50;;;;;;5051244;28;19909;-71
2023/03/16 10:00:14;;;;;;;;;;;12.20;92.80;;;;;;5052938;28;19994;-70
2023/03/16 10:03:16;;;;;;;;;;;12.30;92.40;;;;;;5052798;28;19951;-70
2023/03/16 10:05:42;;;;;;;;;;;12.30;92.80;;;;;;5049896;28;19915;-74
2023/03/16 10:08:11;;;;;;;;;;;12.30;92.90;;;;;;5052386;28;19908;-70
2023/03/16 10:10:55;;;;;;;;;;;12.30;93.20;;;;;;5052127;28;19924;-70
2023/03/16 10:13:33;;;;;;;;;;;12.40;92.50;;;;;;5052057;28;20294;-70
2023/03/16 10:16:01;;;;;;;;;;;12.40;92.60;;;;;;5053120;28;19979;-70
2023/03/16 10:18:31;;;;;;;;;;;12.40;91.30;;;;;;5052828;28;19916;-71
2023/03/16 10:20:57;;;;;;;;;;;12.40;91.60;;;;;;5052620;28;19932;-71
2023/03/16 10:23:24;;;;;;;;;;;12.40;92.00;;;;;;5052509;28;19917;-71
2023/03/16 10:25:51;;;;;;;;;;;12.50;91.50;;;;;;5052860;28;19928;-70
2023/03/16 10:28:25;;;;;;;;;;;12.50;91.40;;;;;;5053351;28;19909;-72
2023/03/16 10:30:51;;;;;;;;;;;12.60;90.90;;;;;;5052293;28;19913;-70
2023/03/16 10:33:27;;;;;;;;;;;12.50;91.30;;;;;;5052464;28;19909;-70
2023/03/16 10:36:00;;;;;;;;;;;12.70;91.60;;;;;;5052391;28;20354;-70
2023/03/16 10:38:41;;;;;;;;;;;12.70;91.20;;;;;;5052546;28;20317;-71
2023/03/16 10:41:20;;;;;;;;;;;12.70;91.70;;;;;;5052617;28;19908;-71
2023/03/16 10:43:48;;;;;;;;;;;12.60;92.10;;;;;;5052738;28;19980;-71
2023/03/16 10:46:13;;;;;;;;;;;12.60;91.90;;;;;;5052585;28;19909;-71
2023/03/16 10:48:40;;;;;;;;;;;12.60;91.70;;;;;;5052536;28;19916;-71
2023/03/16 10:51:12;;;;;;;;;;;12.70;91.10;;;;;;5052240;28;20011;-71
2023/03/16 10:53:39;;;;;;;;;;;12.60;96.90;;;;;;5052080;28;19944;-71
2023/03/16 10:56:18;;;;;;;;;;;12.50;99.90;;;;;;5052375;28;19962;-71
2023/03/16 10:58:45;;;;;;;;;;;12.40;99.90;;;;;;5052055;28;20115;-70
2023/03/16 11:01:19;;;;;;;;;;;12.30;99.90;;;;;;5052484;28;19912;-71
2023/03/16 11:03:50;;;;;;;;;;;12.20;99.90;;;;;;5052876;28;19912;-70
2023/03/16 11:06:19;;;;;;;;;;;12.00;99.90;;;;;;5052516;28;19909;-70
2023/03/16 11:08:46;;;;;;;;;;;12.00;99.90;;;;;;5054273;28;19917;-70
2023/03/16 11:11:29;;;;;;;;;;;11.90;99.90;;;;;;5054367;28;19956;-70
2023/03/16 11:13:57;;;;;;;;;;;11.90;99.90;;;;;;5055413;28;20007;-70
2023/03/16 11:16:23;;;;;;;;;;;11.80;99.90;;;;;;5055526;28;19909;-70
2023/03/16 11:19:02;;;;;;;;;;;11.80;99.90;;;;;;5055233;28;20276;-70
2023/03/16 11:21:54;;;;;;;;;;;11.80;99.90;;;;;;5055103;28;19915;-70
2023/03/16 11:24:26;;;;;;;;;;;11.80;99.90;;;;;;5055137;28;19923;-71
2023/03/16 11:26:53;;;;;;;;;;;11.70;99.90;;;;;;5055530;28;19916;-70
2023/03/16 11:29:22;;;;;;;;;;;11.70;99.90;;;;;;5055109;28;20310;-71
2023/03/16 11:31:52;;;;;;;;;;;11.60;99.90;;;;;;5055284;28;19920;-71
2023/03/16 11:34:20;;;;;;;;;;;11.70;99.90;;;;;;5055198;28;19909;-70
2023/03/16 11:36:54;;;;;;;;;;;11.60;99.90;;;;;;5055696;28;19909;-70
2023/03/16 11:39:26;;;;;;;;;;;11.60;99.90;;;;;;5054921;28;20328;-70
2023/03/16 11:42:11;;;;;;;;;;;11.50;99.90;;;;;;5055107;28;20282;-70
2023/03/16 11:44:39;;;;;;;;;;;11.50;99.90;;;;;;5054872;28;20451;-71
2023/03/16 11:47:23;;;;;;;;;;;11.60;99.90;;;;;;5054992;28;19943;-71
2023/03/16 11:49:48;;;;;;;;;;;11.70;99.90;;;;;;5054629;28;19912;-71
2023/03/16 11:52:42;;;;;;;;;;;11.70;98.40;;;;;;5053902;28;19909;-71
2023/03/16 11:55:27;;;;;;;;;;;11.70;97.40;;;;;;5054807;28;19912;-71
2023/03/16 11:57:59;;;;;;;;;;;11.80;97.20;;;;;;5054906;28;19955;-71
2023/03/16 12:00:44;;;;;;;;;;;11.70;97.50;;;;;;5053275;28;19909;-71
2023/03/16 12:03:24;;;;;;;;;;;11.80;97.90;;;;;;5054025;28;19909;-74
2023/03/16 12:06:07;;;;;;;;;;;11.80;99.30;;;;;;5053764;28;19947;-71
2023/03/16 12:08:37;;;;;;;;;;;11.90;99.90;;;;;;5053443;28;20294;-71
2023/03/16 12:11:05;;;;;;;;;;;11.90;99.90;;;;;;5053727;28;20026;-70
2023/03/16 12:13:37;;;;;;;;;;;11.90;99.90;;;;;;5054286;28;19909;-71
2023/03/16 12:16:09;;;;;;;;;;;11.90;99.90;;;;;;5053028;28;19956;-71
2023/03/16 12:18:47;;;;;;;;;;;11.80;99.90;;;;;;5053721;28;19955;-70
2023/03/16 12:21:18;;;;;;;;;;;11.70;99.90;;;;;;5053328;28;19931;-70
2023/03/16 12:23:51;;;;;;;;;;;11.70;99.90;;;;;;5053989;28;20359;-71
2023/03/16 12:26:18;;;;;;;;;;;11.70;99.90;;;;;;5054092;28;19909;-71
2023/03/16 12:28:43;;;;;;;;;;;11.70;99.90;;;;;;5055034;28;19955;-70
2023/03/16 12:31:09;;;;;;;;;;;11.80;99.90;;;;;;5054051;28;19913;-71
2023/03/16 12:33:38;;;;;;;;;;;11.80;99.90;;;;;;5054078;28;19909;-70
2023/03/16 12:36:13;;;;;;;;;;;11.80;99.90;;;;;;5053114;28;20287;-71
2023/03/16 12:38:39;;;;;;;;;;;11.80;99.70;;;;;;5054030;28;19913;-70
2023/03/16 12:41:05;;;;;;;;;;;11.80;99.20;;;;;;5053777;28;20293;-70
2023/03/16 12:43:38;;;;;;;;;;;11.80;99.70;;;;;;5054182;28;19908;-71
2023/03/16 12:46:13;;;;;;;;;;;11.80;98.90;;;;;;5054276;28;19909;-71
2023/03/16 12:48:51;;;;;;;;;;;11.80;99.00;;;;;;5052377;28;19909;-71
2023/03/16 12:51:17;;;;;;;;;;;11.80;99.20;;;;;;5053222;28;19970;-70
2023/03/16 12:53:45;;;;;;;;;;;11.80;99.90;;;;;;5053598;28;20330;-71
2023/03/16 12:56:14;;;;;;;;;;;11.90;99.90;;;;;;5054134;28;20011;-72
2023/03/16 12:58:42;;;;;;;;;;;11.90;99.90;;;;;;5053940;28;19909;-71
2023/03/16 13:01:10;;;;;;;;;;;11.90;99.90;;;;;;5053036;28;19908;-71
2023/03/16 13:03:35;;;;;;;;;;;12.00;99.90;;;;;;5053486;28;20379;-71
2023/03/16 13:06:02;;;;;;;;;;;12.00;99.90;;;;;;5053488;28;19931;-71
2023/03/16 13:08:39;;;;;;;;;;;12.10;99.90;;;;;;5053118;28;20113;-71
2023/03/16 13:11:09;;;;;;;;;;;12.10;99.90;;;;;;5052728;28;19920;-70
2023/03/16 13:13:46;;;;;;;;;;;12.00;99.90;;;;;;5053174;28;19908;-71
2023/03/16 13:16:22;;;;;;;;;;;12.00;99.90;;;;;;5053668;28;20126;-72
2023/03/16 13:18:48;;;;;;;;;;;12.00;99.90;;;;;;5051891;28;19938;-71
2023/03/16 13:21:15;;;;;;;;;;;11.90;99.90;;;;;;5053034;28;19909;-70
2023/03/16 13:23:51;;;;;;;;;;;11.90;99.90;;;;;;5053225;28;19974;-71
2023/03/16 13:26:21;;;;;;;;;;;11.80;99.90;;;;;;5053535;28;19958;-70
2023/03/16 13:28:51;;;;;;;;;;;11.80;99.90;;;;;;5052971;28;19933;-71
2023/03/16 13:31:22;;;;;;;;;;;11.70;99.90;;;;;;5052026;28;19920;-70
2023/03/16 13:33:50;;;;;;;;;;;11.80;99.90;;;;;;5053214;28;19917;-70
2023/03/16 13:36:16;;;;;;;;;;;11.80;99.90;;;;;;5053209;28;19909;-73
2023/03/16 13:38:42;;;;;;;;;;;11.80;99.90;;;;;;5052854;28;19909;-70
2023/03/16 13:41:09;;;;;;;;;;;11.80;99.90;;;;;;5053367;28;20428;-70
2023/03/16 13:43:37;;;;;;;;;;;11.90;99.90;;;;;;5053123;28;19958;-71
2023/03/16 13:46:13;;;;;;;;;;;12.00;99.90;;;;;;5053153;28;20274;-71
2023/03/16 13:48:40;;;;;;;;;;;12.00;99.90;;;;;;5051744;28;19912;-71
2023/03/16 13:51:14;;;;;;;;;;;11.90;99.90;;;;;;5052593;28;19913;-71
2023/03/16 13:53:39;;;;;;;;;;;11.80;99.90;;;;;;5052959;28;19920;-71
2023/03/16 13:56:06;;;;;;;;;;;11.80;99.90;;;;;;5052893;28;19909;-70
2023/03/16 13:58:33;;;;;;;;;;;11.90;99.90;;;;;;5053093;28;20022;-71
2023/03/16 14:01:00;;;;;;;;;;;11.90;99.90;;;;;;5052396;28;19912;-71
2023/03/16 14:03:34;;;;;;;;;;;12.00;99.90;;;;;;5052764;28;19909;-71
2023/03/16 14:06:01;;;;;;;;;;;12.10;99.90;;;;;;5052987;28;19912;-71
2023/03/16 14:08:28;;;;;;;;;;;12.10;99.90;;;;;;5052780;28;19916;-71
2023/03/16 14:10:55;;;;;;;;;;;12.10;99.90;;;;;;5052713;28;19913;-71
2023/03/16 14:13:28;;;;;;;;;;;12.10;99.90;;;;;;5052696;28;19913;-71
2023/03/16 14:15:58;;;;;;;;;;;12.10;99.90;;;;;;5052635;28;19913;-71
2023/03/16 14:18:43;;;;;;;;;;;12.10;99.90;;;;;;5051822;28;19908;-71
2023/03/16 14:21:13;;;;;;;;;;;12.10;99.90;;;;;;5052786;28;19912;-71
2023/03/16 14:23:40;;;;;;;;;;;12.10;99.90;;;;;;5052469;28;19935;-71
2023/03/16 14:26:11;;;;;;;;;;;12.00;99.90;;;;;;5052757;28;19931;-71
2023/03/16 14:28:37;;;;;;;;;;;12.00;99.90;;;;;;5052847;28;19958;-70